• Join FlightAware (Why Join?)
  • Login
  • US Flag 
05:52PM EDT


 

Airport Tracker/Info


-or-


 

Live Flight TrackerFlight Track Log ✈ ASQ5958 ✈ 07-Jul-2013 ✈ KDEN - KAMA

Flight Track Log - Related Links

Times and Time Zones

All times are in EDT time to prevent confusion due to time zone crossing. See the ASQ5958 flight status page for this flight to view local times or setup timezone preferences in your user account.

Time Position Orientation Groundspeed Altitude Reporting Facility
EDT Latitude Longitude Course Direction KTS MPH feet Rate Location/Type
09:55PM 39.8000 -104.6333 180° South 189 217 7,100  Level Denver TRACON
09:56PM 39.7500 -104.6333 180° South 230 265 8,400 1,620 Climbing Denver TRACON
09:57PM 39.7211 -104.3522 159° South  Level FlightAware Approximate
09:57PM 39.6678 -104.6300 178° South 250 288 10,500  Level Denver Center
09:58PM 39.6277 -104.4028 201° Southwest  Level FlightAware Approximate
09:58PM 39.5900 -104.6178 173° South 276 318 12,300  Level Denver Center
09:59PM 39.5380 -104.4663 212° Southwest  Level FlightAware Approximate
09:59PM 39.4847 -104.6011 173° South 312 359 14,200  Level Denver Center
10:00PM 39.4415 -104.5000 180° South  Level FlightAware Approximate
10:00PM 39.3850 -104.5878 174° South 336 387 15,700  Level Denver Center
10:01PM 39.2861 -104.5736 174° South 357 411 17,000 1,140 Climbing Denver Center
10:02PM 39.1839 -104.5517 171° South 370 426 18,100 1,140 Climbing Denver Center
10:03PM 39.0831 -104.5092 162° South 365 420 19,400 1,200 Climbing Denver Center
10:04PM 38.9861 -104.4333 149° Southeast 384 442 20,700 1,260 Climbing Denver Center
10:05PM 38.8800 -104.3514 149° Southeast 393 452 22,100 1,200 Climbing Denver Center
10:06PM 38.7883 -104.2794 149° Southeast 400 460 23,300 1,500 Climbing Denver Center
10:07PM 38.6983 -104.2092 149° Southeast 397 457 25,200 1,980 Climbing Denver Center
10:08PM 38.6000 -104.1364 150° Southeast 372 428 27,400 1,680 Climbing Denver Center
10:09PM 38.5186 -104.0742 149° Southeast 358 412 28,700 720 Climbing Denver Center
10:10PM 38.4175 -103.9989 150° Southeast 379 436 29,000 120 Climbing Denver Center
10:11PM 38.3233 -103.9258 149° Southeast 410 472 29,000  Level Denver Center
10:12PM 38.2058 -103.8383 150° Southeast 434 499 29,000  Level Denver Center
10:13PM 38.1014 -103.7589 149° Southeast 450 518 29,000  Level Denver Center
10:14PM 37.9936 -103.6781 149° Southeast 465 535 29,000  Level Denver Center
10:15PM 37.8686 -103.5842 149° Southeast 465 535 29,000  Level Denver Center
10:16PM 37.7614 -103.5039 149° Southeast 464 534 29,000  Level Denver Center
10:18PM 37.6344 -103.4111 150° Southeast 467 537 29,000  Level Denver Center
10:19PM 37.5267 -103.3319 150° Southeast 466 536 29,000  Level Denver Center
10:20PM 37.4200 -103.2525 149° Southeast 464 534 29,000  Level Denver Center
10:21PM 37.2947 -103.1617 150° Southeast 464 534 29,000  Level Denver Center
10:22PM 37.1894 -103.0842 150° Southeast 460 529 29,000  Level Denver Center
10:23PM 37.0644 -102.9944 150° Southeast 461 531 29,000  Level Denver Center
10:24PM 36.9425 -102.9047 150° Southeast 458 527 29,000  Level Albuquerque Center
10:25PM 36.8353 -102.8275 150° Southeast 462 532 29,000  Level Albuquerque Center
10:26PM 36.7108 -102.7389 150° Southeast 461 531 29,000  Level Albuquerque Center
10:27PM 36.6156 -102.6700 150° Southeast 462 532 29,000 -540 Level Albuquerque Center
10:28PM 36.4844 -102.5750 150° Southeast 457 526 28,000 -1,500 Descending Albuquerque Center
10:29PM 36.3703 -102.4936 150° Southeast 468 539 26,000 -1,980 Descending Albuquerque Center
10:30PM 36.2575 -102.4139 150° Southeast 469 540 24,000 -1,980 Descending Albuquerque Center
10:31PM 36.1472 -102.3356 150° Southeast 461 531 22,000 -1,980 Descending Albuquerque Center
10:32PM 36.0389 -102.2597 150° Southeast 452 520 20,000 -1,920 Descending Albuquerque Center
10:33PM 35.9350 -102.1861 150° Southeast 439 505 18,100 -1,860 Descending Albuquerque Center
10:34PM 35.8397 -102.1108 147° Southeast 415 478 16,200 -1,920 Descending Albuquerque Center
10:35PM 35.7503 -102.0278 143° Southeast 406 467 14,200 -1,980 Descending Albuquerque Center
10:36PM 35.6725 -101.9550 143° Southeast 363 418 12,200 -1,740 Descending Albuquerque Center
10:37PM 35.5986 -101.8858 143° Southeast 340 391 10,700 -1,560 Descending Albuquerque Center
10:38PM 35.5242 -101.8125 141° Southeast 299 344 9,100 -1,500 Descending Albuquerque Center
10:39PM 35.4653 -101.7528 140° Southeast 284 327 7,700 -1,260 Descending Albuquerque Center
10:40PM 35.4069 -101.7006 144° Southeast 265 305 6,600 -1,140 Descending Albuquerque Center
10:41PM 35.3439 -101.6697 158° South 253 291 5,400 -840 Descending Albuquerque Center
10:42PM 35.2944 -101.6533 165° South 205 236 4,900 -600 Descending Albuquerque Center
10:43PM 35.2608 -101.6656 197° South 156 180 4,300 -600 Descending Albuquerque Center
10:44PM 35.2331 -101.6964 222° Southwest 143 165 3,700 -600 Descending Albuquerque Center
10:46PM 35.2167 -101.7000 219° Southwest  Level FlightAware Approximate